Airfield :
LOGIN :

Register | Disclaimer

   EN    FR    IT 

 










Legend :    VFR   Marginal VFR   IFR   Intensive IFR   Very Intensive IFR
Visi :
Ceiling :
>= 8 km
>= 3000ft
5 to 8 km
1000 to 3000 ft
1500m to 5 km
500 to 1000 ft
800 to 1500m
200 to 500 ft
< 800m
< 200 ft
Symbols :   Thunderstorms  Fog  Heavy snow  Heavy precipitations  Wind > 20 kt
SIGMETs :     Misc.  Thunderstorms  Icing  Turbulence  Mountain Waves  Volcanic Ashes






- Airport Elevation : 24 ft
- IATA code : SGD


EKSB - Sonderborg

CURRENT METAR :
  • 201420Z 09014KT 9999 FEW050TCU 21/12 Q1013

EXPIRED METARs :
  • 201350Z 09015KT 9999 FEW050TCU 21/13 Q1013
  • 201320Z 10014KT CAVOK 21/13 Q1013
  • 201250Z AUTO 10012KT 9999 NCD 22/12 Q1013
  • 201220Z AUTO 10010KT 0000 R14/P1500N R32/1300D FG FEW100/// 22/12 Q1013
  • 201150Z AUTO 09013KT 9999 NCD 22/12 Q1013
  • 201120Z AUTO 09010KT 9999 NCD 22/11 Q1013
  • 201050Z AUTO 08010KT 9999 NCD 21/11 Q1013
  • 201020Z AUTO 08009KT 9999 NCD 21/11 Q1013

TAF TAF EKSB
Valid from the 20 at 14:00 until the 20 at 18:00 UTC


201356Z 2014/2018 10015KT CAVOK
TEMPO 2014/2017 FEW040TCU



MET'MAP, your aeronautical weather chart ! - Copyright ORBIFLY December 2007 - Disclaimer

ORBIFLY MET'MAP TEAM :

Programming & Development : Alexandra Zaïnal
Original concept : Baudouin d'Aumeries
Technical & hardware support : Manuel Goepfert
Assistance : Marc-Olivier Méhu




SOURCES & CREDITS :

   NOAA